KRRL/RRL METAR and TAF weather

Enter ICAO airport designator
Station Type Date Time Source
KRRL METAR 2019/02/20 17:55 UTC NOAA

KRRL 201755Z AUTO 09008G16KT 3/4SM -SN SCT007 OVC012 M04/M06 A2980 RMK AO2 T10451061 11045 21095 TSNO


Station Type Date Time Source
KRRL Decoded METAR 2019/02/20 17:55 UTC NOAA

Merrill, Merrill Municipal Airport, WI, United States (KRRL) 45-11N 089-42W
Feb 20, 2019 - 12:55 PM EST / 2019.02.20 1755 UTC
Wind: from the E (090 degrees) at 9 MPH (8 KT) gusting to 18 MPH (16 KT):0
Visibility: 3/4 mile(s):0
Sky conditions: overcast
Weather: light snow
Temperature: 23.9 F (-4.5 C)
Windchill: 14 F (-10 C):1
Dew Point: 21.0 F (-6.1 C)
Relative Humidity: 88%
Pressure (altimeter): 29.8 in. Hg (1009 hPa)
ob: KRRL 201755Z AUTO 09008G16KT 3/4SM -SN SCT007 OVC012 M04/M06 A2980 RMK AO2 T10451061 11045 21095 TSNO
cycle: 18

Station Type Date Time Source
KRRL TAF UTC NOAA

Error!


Example: see airport list